Time;durP1;ratioP1;P1;durP2;ratioP2;P2;SDS_P1;SDS_P2;PMS_P1;PMS_P2;Temp;Humidity;BMP_temperature;BMP_pressure;BME280_temperature;BME280_humidity;BME280_pressure;Samples;Min_cycle;Max_cycle;Signal;HPM_P1;HPM_P2
2022/06/10 00:02:30;;;;;;;2.03;1.60;;;22.90;90.10;;;;;;6238774;27;89019;-65
2022/06/10 00:05:36;;;;;;;1.98;1.58;;;22.90;90.10;;;;;;6242283;27;89092;-66
2022/06/10 00:08:41;;;;;;;2.42;1.70;;;22.90;90.20;;;;;;6239254;27;88951;-66
2022/06/10 00:11:44;;;;;;;2.42;1.80;;;22.80;90.20;;;;;;6250922;27;88957;-66
2022/06/10 00:14:46;;;;;;;3.10;1.80;;;22.90;90.20;;;;;;6235057;27;89004;-65
2022/06/10 00:17:48;;;;;;;3.67;1.80;;;22.90;90.20;;;;;;6246649;27;89661;-66
2022/06/10 00:20:50;;;;;;;1.90;1.67;;;22.90;90.20;;;;;;6243087;27;88298;-66
2022/06/10 00:23:52;;;;;;;2.50;1.80;;;22.90;90.20;;;;;;6272987;27;89393;-66
2022/06/10 00:26:56;;;;;;;3.00;1.85;;;22.90;90.20;;;;;;6237204;27;89429;-66
2022/06/10 00:29:58;;;;;;;1.88;1.70;;;22.90;90.20;;;;;;6248925;27;88846;-65
2022/06/10 00:33:00;;;;;;;2.42;1.90;;;22.90;90.20;;;;;;6241693;27;89146;-66
2022/06/10 00:36:03;;;;;;;2.10;1.80;;;22.90;90.20;;;;;;6237455;27;89777;-65
2022/06/10 00:39:05;;;;;;;2.47;1.90;;;22.90;90.20;;;;;;6238133;27;88999;-65
2022/06/10 00:42:13;;;;;;;2.78;2.05;;;22.90;90.20;;;;;;6240862;27;89138;-66
2022/06/10 00:45:52;;;;;;;2.55;2.20;;;22.90;90.30;;;;;;6249031;27;89058;-65
2022/06/10 00:48:59;;;;;;;2.88;1.77;;;22.90;90.30;;;;;;6238210;27;89096;-65
2022/06/10 00:52:02;;;;;;;3.08;1.77;;;22.80;90.30;;;;;;6240414;27;88387;-66
2022/06/10 00:55:06;;;;;;;2.45;1.77;;;22.90;90.30;;;;;;6247450;27;89115;-65
2022/06/10 00:58:16;;;;;;;2.17;1.95;;;22.80;90.30;;;;;;6247604;27;89011;-66
2022/06/10 01:01:22;;;;;;;1.85;1.75;;;22.80;90.30;;;;;;6248194;27;90135;-65
2022/06/10 01:04:25;;;;;;;2.40;1.83;;;22.80;90.30;;;;;;6249113;27;89347;-65
2022/06/10 01:07:31;;;;;;;2.92;2.10;;;22.80;90.30;;;;;;6256325;27;89843;-66
2022/06/10 01:10:42;;;;;;;2.45;1.90;;;22.80;90.30;;;;;;6258795;27;89097;-65
2022/06/10 01:13:54;;;;;;;4.45;2.08;;;22.80;90.20;;;;;;6249329;27;89125;-64
2022/06/10 01:17:07;;;;;;;2.60;1.92;;;22.80;90.20;;;;;;6243890;27;89105;-64
2022/06/10 01:20:28;;;;;;;2.67;1.90;;;22.80;90.20;;;;;;6243954;27;89423;-64
2022/06/10 01:24:03;;;;;;;1.88;1.65;;;22.80;90.10;;;;;;6245153;27;88304;-64
2022/06/10 01:27:48;;;;;;;2.78;2.00;;;22.80;90.10;;;;;;6217418;27;89635;-64
2022/06/10 01:31:13;;;;;;;1.98;1.77;;;22.80;90.10;;;;;;6259189;27;89427;-64
2022/06/10 01:34:26;;;;;;;2.40;1.80;;;22.80;90.10;;;;;;6254440;27;90030;-64
2022/06/10 01:37:39;;;;;;;2.65;1.83;;;22.80;90.10;;;;;;6253389;27;89141;-64
2022/06/10 01:40:48;;;;;;;3.72;2.40;;;22.80;90.10;;;;;;6248916;27;88098;-64
2022/06/10 01:44:01;;;;;;;2.70;1.85;;;22.70;90.10;;;;;;6253885;27;89368;-64
2022/06/10 01:47:08;;;;;;;2.40;2.05;;;22.80;90.10;;;;;;6246407;27;89066;-64
2022/06/10 01:50:14;;;;;;;2.58;1.88;;;22.70;90.10;;;;;;6245834;27;89001;-64
2022/06/10 01:53:23;;;;;;;2.65;2.20;;;22.70;90.20;;;;;;6247617;27;87953;-64
2022/06/10 01:56:31;;;;;;;2.95;1.88;;;22.70;90.10;;;;;;6240781;27;88412;-64
2022/06/10 01:59:38;;;;;;;2.45;2.17;;;22.80;90.20;;;;;;6256802;27;89275;-64
2022/06/10 02:02:47;;;;;;;3.92;2.38;;;22.70;90.10;;;;;;6258390;27;89077;-64
2022/06/10 02:05:53;;;;;;;2.28;2.08;;;22.70;90.10;;;;;;6257629;27;90344;-63
2022/06/10 02:08:59;;;;;;;2.40;2.15;;;22.70;90.10;;;;;;6248696;27;89148;-64
2022/06/10 02:12:06;;;;;;;2.40;2.13;;;22.70;90.10;;;;;;6257442;27;89024;-64
2022/06/10 02:15:13;;;;;;;3.25;1.92;;;22.70;90.10;;;;;;6250828;27;89100;-63
2022/06/10 02:18:22;;;;;;;2.88;2.13;;;22.70;90.20;;;;;;6237991;27;89045;-64
2022/06/10 02:21:28;;;;;;;2.85;2.30;;;22.70;90.20;;;;;;6239766;27;89070;-64
2022/06/10 02:24:36;;;;;;;2.72;2.40;;;22.70;90.20;;;;;;6247311;27;89010;-64
2022/06/10 02:27:43;;;;;;;3.88;2.30;;;22.70;90.20;;;;;;6249091;27;88279;-64
2022/06/10 02:30:53;;;;;;;2.67;2.30;;;22.70;90.20;;;;;;6240106;27;89390;-64
2022/06/10 02:33:56;;;;;;;3.05;2.30;;;22.70;90.30;;;;;;6254552;27;88061;-64
2022/06/10 02:37:06;;;;;;;3.20;2.60;;;22.70;90.30;;;;;;6262897;27;90309;-64
2022/06/10 02:40:17;;;;;;;2.75;2.45;;;22.70;90.30;;;;;;6248281;27;89098;-64
2022/06/10 02:43:27;;;;;;;2.67;2.38;;;22.70;90.40;;;;;;6244886;27;88259;-64
2022/06/10 02:46:36;;;;;;;2.78;2.50;;;22.70;90.40;;;;;;6236286;27;87886;-64
2022/06/10 02:49:39;;;;;;;3.63;2.65;;;22.70;90.40;;;;;;6244923;27;89032;-64
2022/06/10 02:52:42;;;;;;;2.97;2.65;;;22.70;90.40;;;;;;6245428;27;89084;-64
2022/06/10 02:55:44;;;;;;;4.22;2.60;;;22.70;90.40;;;;;;6249157;27;89132;-64
2022/06/10 03:02:24;;;;;;;3.40;2.70;;;22.70;90.50;;;;;;6250985;28;87560;-64
2022/06/10 03:05:36;;;;;;;3.55;3.15;;;22.70;90.50;;;;;;6252653;27;89820;-64
2022/06/10 03:08:44;;;;;;;3.17;2.80;;;22.60;90.50;;;;;;6254527;27;88923;-64
2022/06/10 03:12:01;;;;;;;2.80;2.58;;;22.60;90.50;;;;;;6244397;27;89454;-64
2022/06/10 03:15:22;;;;;;;3.28;2.97;;;22.60;90.60;;;;;;6254349;27;89171;-64
2022/06/10 03:18:38;;;;;;;3.25;2.95;;;22.70;90.60;;;;;;6254733;27;88085;-64
2022/06/10 03:21:55;;;;;;;3.75;3.15;;;22.60;90.60;;;;;;6255565;27;87987;-64
2022/06/10 03:25:08;;;;;;;3.58;3.17;;;22.60;90.60;;;;;;6256055;27;89075;-64
2022/06/10 03:28:15;;;;;;;3.40;3.10;;;22.60;90.60;;;;;;6234330;27;89110;-64
2022/06/10 03:31:26;;;;;;;4.80;3.60;;;22.60;90.60;;;;;;6251614;27;88350;-64
2022/06/10 03:34:33;;;;;;;3.35;3.05;;;22.60;90.60;;;;;;6257142;27;88982;-64
2022/06/10 03:37:39;;;;;;;3.38;3.03;;;22.60;90.60;;;;;;6256088;27;89037;-64
2022/06/10 03:40:42;;;;;;;4.70;3.15;;;22.60;90.60;;;;;;6253216;27;89973;-64
2022/06/10 03:43:45;;;;;;;3.60;3.17;;;22.60;90.60;;;;;;6250613;27;88438;-66
2022/06/10 03:46:50;;;;;;;3.53;3.10;;;22.60;90.60;;;;;;6247611;27;89084;-66
2022/06/10 03:49:58;;;;;;;3.95;3.55;;;22.60;90.60;;;;;;6262286;27;89214;-66
2022/06/10 03:53:01;;;;;;;3.97;3.55;;;22.60;90.60;;;;;;6244478;27;89602;-66
2022/06/10 03:56:03;;;;;;;3.70;3.38;;;22.60;90.70;;;;;;6251099;27;89018;-66
2022/06/10 03:59:05;;;;;;;4.00;3.60;;;22.60;90.60;;;;;;6247596;27;89120;-66
2022/06/10 04:02:07;;;;;;;5.35;3.72;;;22.60;90.70;;;;;;6253778;27;88423;-66
2022/06/10 04:05:10;;;;;;;3.80;3.40;;;22.60;90.70;;;;;;6246475;27;89035;-66
2022/06/10 04:08:14;;;;;;;3.72;3.40;;;22.60;90.70;;;;;;6252620;27;88318;-65
2022/06/10 04:11:16;;;;;;;4.10;3.70;;;22.60;90.70;;;;;;6240557;27;90022;-66
2022/06/10 04:14:18;;;;;;;4.47;3.65;;;22.60;90.70;;;;;;6235438;28;89024;-66
2022/06/10 04:17:20;;;;;;;4.38;3.88;;;22.60;90.70;;;;;;6232321;27;87970;-66
2022/06/10 04:20:26;;;;;;;3.75;3.30;;;22.60;90.70;;;;;;6250142;27;89419;-66
2022/06/10 04:23:29;;;;;;;4.22;3.30;;;22.60;90.70;;;;;;6255854;27;87986;-63
2022/06/10 04:26:31;;;;;;;3.30;3.00;;;22.60;90.70;;;;;;6249193;27;88966;-64
2022/06/10 04:29:33;;;;;;;3.90;3.45;;;22.50;90.60;;;;;;6234401;27;88994;-63
2022/06/10 04:32:35;;;;;;;3.30;3.00;;;22.60;90.70;;;;;;6237594;27;88395;-63
2022/06/10 04:35:38;;;;;;;3.40;3.10;;;22.50;90.60;;;;;;6236918;27;88895;-63
2022/06/10 04:38:42;;;;;;;3.72;3.33;;;22.60;90.60;;;;;;6245937;27;89532;-63
2022/06/10 04:41:44;;;;;;;3.53;3.20;;;22.50;90.60;;;;;;6252877;27;90001;-63
2022/06/10 04:44:46;;;;;;;3.17;2.88;;;22.50;90.60;;;;;;6253226;27;88282;-63
2022/06/10 04:47:49;;;;;;;3.60;2.90;;;22.50;90.60;;;;;;6255174;27;89120;-63
2022/06/10 04:50:50;;;;;;;3.47;3.08;;;22.50;90.50;;;;;;6258931;27;89273;-63
2022/06/10 04:53:55;;;;;;;3.78;3.10;;;22.50;90.50;;;;;;6255504;27;89115;-63
2022/06/10 04:56:57;;;;;;;3.95;2.95;;;22.50;90.50;;;;;;6247467;27;89029;-63
2022/06/10 04:59:59;;;;;;;3.17;2.70;;;22.50;90.40;;;;;;6247268;27;89399;-63
2022/06/10 05:03:02;;;;;;;3.28;2.97;;;22.50;90.40;;;;;;6248054;27;88464;-64
2022/06/10 05:06:05;;;;;;;3.20;2.80;;;22.50;90.40;;;;;;6257904;27;88997;-64
2022/06/10 05:09:08;;;;;;;4.55;2.67;;;22.50;90.40;;;;;;6258497;27;89363;-64
2022/06/10 05:12:10;;;;;;;2.78;2.42;;;22.50;90.40;;;;;;6252536;27;90017;-64
2022/06/10 05:15:13;;;;;;;2.80;2.40;;;22.50;90.30;;;;;;6243080;27;88923;-64
2022/06/10 05:18:17;;;;;;;2.65;2.45;;;22.50;90.20;;;;;;6250885;27;89128;-64
2022/06/10 05:21:19;;;;;;;3.47;2.75;;;22.50;90.20;;;;;;6240209;27;89051;-65
2022/06/10 05:24:22;;;;;;;2.67;2.30;;;22.50;90.20;;;;;;6235681;27;89357;-64
2022/06/10 05:27:24;;;;;;;2.60;2.40;;;22.50;90.20;;;;;;6259846;27;89412;-64
2022/06/10 05:30:32;;;;;;;3.00;2.70;;;22.50;90.20;;;;;;6248433;27;89125;-64
2022/06/10 05:36:50;;;;;;;3.95;2.53;;;22.50;90.20;;;;;;6248145;27;88712;-64
2022/06/10 05:39:55;;;;;;;2.92;2.53;;;22.50;90.20;;;;;;6254620;27;88883;-64
2022/06/10 05:42:57;;;;;;;2.50;2.30;;;22.50;90.20;;;;;;6244528;27;89953;-64
2022/06/10 05:45:59;;;;;;;3.00;2.47;;;22.50;90.20;;;;;;6261036;27;89037;-64
2022/06/10 05:49:01;;;;;;;3.08;2.40;;;22.50;90.20;;;;;;6250328;27;89166;-64
2022/06/10 05:52:06;;;;;;;2.97;2.45;;;22.50;90.20;;;;;;6252562;27;89081;-64
2022/06/10 05:55:10;;;;;;;3.45;2.60;;;22.50;90.20;;;;;;6241713;27;89166;-64
2022/06/10 05:58:12;;;;;;;4.68;2.60;;;22.40;90.20;;;;;;6245729;27;89222;-64
2022/06/10 06:01:14;;;;;;;3.10;2.10;;;22.50;90.20;;;;;;6257536;27;89386;-64
2022/06/10 06:04:16;;;;;;;2.60;2.40;;;22.40;90.20;;;;;;6247352;27;88464;-65
2022/06/10 06:07:22;;;;;;;2.90;2.42;;;22.50;90.20;;;;;;6249793;27;87976;-66
2022/06/10 06:10:28;;;;;;;2.70;2.40;;;22.50;90.20;;;;;;6243474;27;89115;-64
2022/06/10 06:13:30;;;;;;;3.75;2.40;;;22.40;90.20;;;;;;6253303;27;90052;-64
2022/06/10 06:16:33;;;;;;;2.50;2.30;;;22.40;90.60;;;;;;6264657;27;89222;-64
2022/06/10 06:19:35;;;;;;;2.92;2.40;;;22.50;90.20;;;;;;6244502;27;89056;-64
2022/06/10 06:22:38;;;;;;;2.67;2.13;;;22.40;90.20;;;;;;6234042;27;89300;-64
2022/06/10 06:25:42;;;;;;;3.25;2.60;;;22.40;90.20;;;;;;6246077;27;89659;-64
2022/06/10 06:28:44;;;;;;;2.88;2.25;;;22.40;90.20;;;;;;6248991;27;89368;-64
2022/06/10 06:31:47;;;;;;;3.17;2.05;;;22.40;90.20;;;;;;6255919;27;87931;-64
2022/06/10 06:34:49;;;;;;;2.50;2.30;;;22.40;90.20;;;;;;6256294;27;87480;-64
2022/06/10 06:37:51;;;;;;;3.00;2.30;;;22.40;90.20;;;;;;6247047;27;89305;-63
2022/06/10 06:40:54;;;;;;;2.50;2.30;;;22.40;90.20;;;;;;6249590;27;89043;-64
2022/06/10 06:43:56;;;;;;;3.50;2.60;;;22.40;90.20;;;;;;6247842;27;89976;-64
2022/06/10 06:46:58;;;;;;;2.53;2.33;;;22.40;90.20;;;;;;6250922;27;87895;-63
2022/06/10 06:50:01;;;;;;;3.65;2.40;;;22.40;90.30;;;;;;6256875;27;89051;-63
2022/06/10 06:53:03;;;;;;;3.60;2.75;;;22.40;90.30;;;;;;6244941;27;89108;-64
2022/06/10 06:56:07;;;;;;;4.07;2.33;;;22.40;90.30;;;;;;6249795;28;89083;-64
2022/06/10 06:59:09;;;;;;;3.97;2.58;;;22.40;90.20;;;;;;6245811;27;89076;-64
2022/06/10 07:02:12;;;;;;;3.78;2.42;;;22.40;90.30;;;;;;6246360;27;89363;-64
2022/06/10 07:05:14;;;;;;;3.22;2.58;;;22.40;90.30;;;;;;6251593;27;88259;-64
2022/06/10 07:08:17;;;;;;;2.60;2.38;;;22.40;90.40;;;;;;6247938;27;89063;-64
2022/06/10 07:11:20;;;;;;;2.80;2.33;;;22.40;90.40;;;;;;6248886;27;87917;-63
2022/06/10 07:14:23;;;;;;;2.67;2.42;;;22.40;90.40;;;;;;6246271;28;89965;-64
2022/06/10 07:17:26;;;;;;;3.47;2.65;;;22.40;90.50;;;;;;6249777;27;89056;-63
2022/06/10 07:20:32;;;;;;;3.45;2.40;;;22.40;90.50;;;;;;6249786;27;88999;-64
2022/06/10 07:23:35;;;;;;;2.85;2.50;;;22.40;90.50;;;;;;6251782;27;89123;-64
2022/06/10 07:26:39;;;;;;;2.30;2.10;;;22.40;90.60;;;;;;6248003;28;89083;-64
2022/06/10 07:29:41;;;;;;;4.30;2.58;;;22.40;90.60;;;;;;6250257;27;87974;-64
2022/06/10 07:32:44;;;;;;;3.17;2.38;;;22.40;90.70;;;;;;6251911;27;87883;-64
2022/06/10 07:35:46;;;;;;;2.63;2.28;;;22.40;90.70;;;;;;6251453;27;88228;-64
2022/06/10 07:38:47;;;;;;;4.85;2.60;;;22.40;90.70;;;;;;6247790;28;89069;-64
2022/06/10 07:42:01;;;;;;;3.40;2.42;;;22.40;90.70;;;;;;6249887;27;89193;-64
2022/06/10 07:45:03;;;;;;;2.95;2.38;;;22.30;90.80;;;;;;6249303;27;89867;-64
2022/06/10 07:48:06;;;;;;;2.78;2.47;;;22.40;90.80;;;;;;6246698;27;89215;-64
2022/06/10 07:51:08;;;;;;;3.75;2.55;;;22.30;90.80;;;;;;6244064;27;89054;-64
2022/06/10 07:54:10;;;;;;;2.92;2.40;;;22.40;90.80;;;;;;6252552;27;89481;-64
2022/06/10 07:57:14;;;;;;;2.95;2.55;;;22.40;90.90;;;;;;6250029;27;89205;-64
2022/06/10 08:00:17;;;;;;;2.60;2.38;;;22.40;90.90;;;;;;6240981;27;89309;-63
2022/06/10 08:03:19;;;;;;;3.30;2.40;;;22.40;90.90;;;;;;6245418;28;89000;-64
2022/06/10 08:06:22;;;;;;;3.75;2.60;;;22.40;91.00;;;;;;6240395;27;87212;-64
2022/06/10 08:09:24;;;;;;;3.85;2.88;;;22.40;91.00;;;;;;6241266;27;89226;-64
2022/06/10 08:12:28;;;;;;;4.55;2.75;;;22.30;91.00;;;;;;6244830;28;89269;-64
2022/06/10 08:15:31;;;;;;;3.08;2.70;;;22.40;91.00;;;;;;6232350;27;90224;-64
2022/06/10 08:18:33;;;;;;;3.67;2.60;;;22.40;91.10;;;;;;6245557;27;89028;-64
2022/06/10 08:24:55;;;;;;;2.80;2.50;;;22.40;91.20;;;;;;6252404;27;87200;-64
2022/06/10 08:27:58;;;;;;;2.97;2.58;;;22.40;91.20;;;;;;6247828;27;89157;-63
2022/06/10 08:31:00;;;;;;;2.72;2.47;;;22.30;91.10;;;;;;6237776;27;89131;-63
2022/06/10 08:34:04;;;;;;;3.35;2.58;;;22.30;91.10;;;;;;6240672;28;87909;-64
2022/06/10 08:37:06;;;;;;;3.85;2.70;;;22.30;91.10;;;;;;6238116;28;88330;-64
2022/06/10 08:40:17;;;;;;;2.83;2.53;;;22.30;91.10;;;;;;6244747;27;89057;-64
2022/06/10 08:43:30;;;;;;;3.80;2.78;;;22.40;91.20;;;;;;6236387;28;89018;-63
2022/06/10 08:47:08;;;;;;;3.08;2.63;;;22.30;91.20;;;;;;6239796;28;89985;-63
2022/06/10 08:50:21;;;;;;;3.22;2.80;;;22.30;91.20;;;;;;6244176;28;89016;-63
2022/06/10 08:53:53;;;;;;;2.78;2.45;;;22.30;91.30;;;;;;6235731;27;89151;-63
2022/06/10 08:56:59;;;;;;;3.05;2.70;;;22.30;91.40;;;;;;6236022;27;89221;-63
2022/06/10 09:00:05;;;;;;;2.85;2.50;;;22.40;91.50;;;;;;6236109;28;88981;-64
2022/06/10 09:03:13;;;;;;;4.57;2.97;;;22.30;91.40;;;;;;6245443;27;89084;-64
2022/06/10 09:06:21;;;;;;;3.35;2.58;;;22.30;91.50;;;;;;6246170;27;89080;-64
2022/06/10 09:09:26;;;;;;;2.83;2.33;;;22.40;91.60;;;;;;6247155;27;88305;-64
2022/06/10 09:12:46;;;;;;;4.32;2.60;;;22.30;91.60;;;;;;6243962;28;89018;-64
2022/06/10 09:15:58;;;;;;;3.58;2.70;;;22.30;92.00;;;;;;6241427;27;89119;-64
2022/06/10 09:19:07;;;;;;;2.63;2.40;;;22.30;91.70;;;;;;6245190;27;90298;-64
2022/06/10 09:22:15;;;;;;;2.53;2.33;;;22.30;91.70;;;;;;6248868;28;89068;-65
2022/06/10 09:25:25;;;;;;;2.70;2.47;;;22.30;91.70;;;;;;6253460;28;88005;-64
2022/06/10 09:28:29;;;;;;;2.63;2.42;;;22.30;91.80;;;;;;6256638;27;89371;-64
2022/06/10 09:31:40;;;;;;;3.63;2.67;;;22.30;91.80;;;;;;6243655;27;89099;-64
2022/06/10 09:34:53;;;;;;;3.33;2.70;;;22.30;92.10;;;;;;6242218;27;88519;-62
2022/06/10 09:38:00;;;;;;;3.30;2.70;;;22.30;93.10;;;;;;6248564;27;89155;-63
2022/06/10 09:41:09;;;;;;;2.65;2.33;;;22.40;93.40;;;;;;6240477;27;88387;-63
2022/06/10 09:44:21;;;;;;;3.47;2.60;;;22.40;93.50;;;;;;6234850;28;89249;-63
2022/06/10 09:47:37;;;;;;;3.22;2.92;;;22.30;93.80;;;;;;6245441;27;89080;-63
2022/06/10 09:50:48;;;;;;;3.00;2.63;;;22.30;93.50;;;;;;6234807;28;90268;-63
2022/06/10 09:54:13;;;;;;;3.22;2.65;;;22.40;93.40;;;;;;6247271;27;89132;-63
2022/06/10 09:57:41;;;;;;;2.95;2.50;;;22.40;94.40;;;;;;6253300;27;89117;-63
2022/06/10 10:00:53;;;;;;;3.72;2.88;;;22.40;95.30;;;;;;6251409;27;89490;-62
2022/06/10 10:04:22;;;;;;;3.22;2.67;;;22.40;95.00;;;;;;6243469;27;88779;-63
2022/06/10 10:07:32;;;;;;;2.95;2.67;;;22.40;94.80;;;;;;6264882;27;89084;-63
2022/06/10 10:10:41;;;;;;;4.10;2.75;;;22.40;94.60;;;;;;6257238;27;88233;-63
2022/06/10 10:13:54;;;;;;;2.85;2.60;;;22.40;94.60;;;;;;6258813;27;88313;-63
2022/06/10 10:17:14;;;;;;;2.78;2.58;;;22.30;94.60;;;;;;6256572;27;87973;-63
2022/06/10 10:20:27;;;;;;;4.15;2.78;;;22.40;94.60;;;;;;6244378;27;87866;-63
2022/06/10 10:23:33;;;;;;;3.00;2.70;;;22.40;94.60;;;;;;6251592;27;88991;-63
2022/06/10 10:26:39;;;;;;;3.38;3.00;;;22.30;94.50;;;;;;6234476;27;89119;-63
2022/06/10 10:29:45;;;;;;;3.20;2.42;;;22.40;94.60;;;;;;6245621;27;89060;-63
2022/06/10 10:32:52;;;;;;;3.75;3.00;;;22.40;94.40;;;;;;6240129;27;87915;-64
2022/06/10 10:35:58;;;;;;;3.38;2.90;;;22.40;94.60;;;;;;6237526;27;89094;-64
2022/06/10 10:39:13;;;;;;;3.83;2.92;;;22.40;94.60;;;;;;6237699;27;89210;-64
2022/06/10 10:42:22;;;;;;;3.45;2.83;;;22.40;94.60;;;;;;6256299;27;89040;-63
2022/06/10 10:45:30;;;;;;;5.00;3.00;;;22.40;94.60;;;;;;6244612;27;88372;-63
2022/06/10 10:48:35;;;;;;;4.95;2.83;;;22.40;94.40;;;;;;6244582;27;89208;-63
2022/06/10 10:51:41;;;;;;;3.00;2.70;;;22.40;94.40;;;;;;6255845;27;89196;-64
2022/06/10 10:54:48;;;;;;;2.95;2.50;;;22.30;94.20;;;;;;6232518;27;90131;-63
2022/06/10 10:58:01;;;;;;;3.15;2.55;;;22.40;94.10;;;;;;6264532;27;90284;-63
2022/06/10 11:01:06;;;;;;;3.85;2.53;;;22.40;94.10;;;;;;6253534;27;88990;-63
2022/06/10 11:04:11;;;;;;;3.10;2.70;;;22.40;94.20;;;;;;6242407;27;89417;-63
2022/06/10 11:07:18;;;;;;;4.45;3.20;;;22.40;94.40;;;;;;6247586;27;89128;-63
2022/06/10 11:10:23;;;;;;;2.60;2.35;;;22.40;94.60;;;;;;6250782;28;89245;-63
2022/06/10 11:13:34;;;;;;;3.13;2.70;;;22.40;94.50;;;;;;6236651;28;89070;-63
2022/06/10 11:16:43;;;;;;;3.42;2.50;;;22.40;94.50;;;;;;6244445;27;88451;-63
2022/06/10 11:19:49;;;;;;;4.10;2.70;;;22.40;94.60;;;;;;6251305;27;89001;-63
2022/06/10 11:23:11;;;;;;;3.10;2.80;;;22.40;94.70;;;;;;6245256;27;89063;-64
2022/06/10 11:26:17;;;;;;;4.18;3.13;;;22.40;94.60;;;;;;6246839;27;90260;-65
2022/06/10 11:29:19;;;;;;;2.97;2.72;;;22.40;94.70;;;;;;6248740;28;89094;-64
2022/06/10 11:32:27;;;;;;;2.95;2.60;;;22.40;94.80;;;;;;6251256;27;89376;-64
2022/06/10 11:35:32;;;;;;;2.90;2.55;;;22.40;94.80;;;;;;6250295;27;89048;-63
2022/06/10 11:38:39;;;;;;;3.17;2.58;;;22.40;94.80;;;;;;6248915;27;89200;-64
2022/06/10 11:41:41;;;;;;;3.28;2.60;;;22.40;94.80;;;;;;6237359;27;89085;-64
2022/06/10 11:44:47;;;;;;;2.72;2.53;;;22.40;95.00;;;;;;6241221;27;89050;-64
2022/06/10 11:47:55;;;;;;;3.10;2.70;;;22.40;95.40;;;;;;6243635;27;86332;-64
2022/06/10 11:51:02;;;;;;;2.80;2.60;;;22.40;95.00;;;;;;6242312;28;89325;-64
2022/06/10 11:54:17;;;;;;;3.33;2.70;;;22.40;94.90;;;;;;6243301;27;89181;-63
2022/06/10 12:00:46;;;;;;;2.80;2.50;;;22.40;94.90;;;;;;6239368;27;87561;-64
2022/06/10 12:03:55;;;;;;;3.17;2.88;;;22.40;94.80;;;;;;6246376;27;89111;-64
2022/06/10 12:07:05;;;;;;;3.10;2.80;;;22.40;94.70;;;;;;6248748;28;89098;-64
2022/06/10 12:10:16;;;;;;;3.10;2.63;;;22.40;94.80;;;;;;6243125;27;89073;-63
2022/06/10 12:13:18;;;;;;;3.67;3.05;;;22.40;94.60;;;;;;6241497;27;89077;-64
2022/06/10 12:16:21;;;;;;;3.38;2.75;;;22.40;94.70;;;;;;6249808;28;90444;-63
2022/06/10 12:19:29;;;;;;;3.08;2.60;;;22.40;94.80;;;;;;6240959;28;88669;-64
2022/06/10 12:22:33;;;;;;;2.85;2.45;;;22.40;94.60;;;;;;6238789;27;89420;-64
2022/06/10 12:25:49;;;;;;;2.90;2.60;;;22.40;94.70;;;;;;6239885;28;89111;-64
2022/06/10 12:28:57;;;;;;;2.95;2.65;;;22.40;94.70;;;;;;6240386;28;90083;-64
2022/06/10 12:32:05;;;;;;;2.90;2.70;;;22.40;94.70;;;;;;6244993;28;89008;-64
2022/06/10 12:35:17;;;;;;;2.72;2.53;;;22.40;94.80;;;;;;6248548;27;89121;-64
2022/06/10 12:38:24;;;;;;;3.08;2.60;;;22.40;94.70;;;;;;6235470;27;89114;-64
2022/06/10 12:41:36;;;;;;;2.92;2.72;;;22.40;94.70;;;;;;6247235;28;89432;-64
2022/06/10 12:44:47;;;;;;;3.00;2.70;;;22.40;94.90;;;;;;6248520;28;89376;-64
2022/06/10 12:47:54;;;;;;;3.90;3.22;;;22.40;95.00;;;;;;6244175;27;87944;-64
2022/06/10 12:50:59;;;;;;;3.65;2.85;;;22.40;95.10;;;;;;6245267;27;88497;-64
2022/06/10 12:54:06;;;;;;;2.85;2.65;;;22.40;94.90;;;;;;6241071;28;89070;-64
2022/06/10 12:57:37;;;;;;;3.13;2.70;;;22.40;95.00;;;;;;6242893;27;89179;-64
2022/06/10 13:00:42;;;;;;;3.17;2.88;;;22.40;95.10;;;;;;6252854;28;88918;-64
2022/06/10 13:03:44;;;;;;;3.38;2.60;;;22.40;95.00;;;;;;6248874;27;89120;-64
2022/06/10 13:06:56;;;;;;;2.90;2.60;;;22.40;95.00;;;;;;6254578;27;89001;-64
2022/06/10 13:10:39;;;;;;;3.05;2.75;;;22.40;95.10;;;;;;6249822;27;89064;-64
2022/06/10 13:13:45;;;;;;;3.03;2.80;;;22.40;95.00;;;;;;6201294;27;89106;-64
2022/06/10 13:16:49;;;;;;;3.53;2.80;;;22.40;95.00;;;;;;6252130;27;89146;-64
2022/06/10 13:20:22;;;;;;;2.60;2.38;;;22.30;94.90;;;;;;6243641;28;89138;-64
2022/06/10 13:23:26;;;;;;;2.90;2.70;;;22.30;95.00;;;;;;6245610;28;89078;-64
2022/06/10 13:26:29;;;;;;;2.63;2.42;;;22.30;95.10;;;;;;6250432;27;89180;-64
2022/06/10 13:29:32;;;;;;;3.35;2.50;;;22.40;95.20;;;;;;6243439;27;87979;-64
2022/06/10 13:32:34;;;;;;;2.78;2.58;;;22.30;95.20;;;;;;6244476;27;90222;-64
2022/06/10 13:35:39;;;;;;;2.80;2.60;;;22.30;95.20;;;;;;6249651;28;89383;-64
2022/06/10 13:38:44;;;;;;;3.65;2.83;;;22.30;95.20;;;;;;6247959;27;88746;-64
2022/06/10 13:41:53;;;;;;;2.80;2.60;;;22.30;95.30;;;;;;6240961;27;89216;-64
2022/06/10 13:44:57;;;;;;;4.95;2.70;;;22.30;95.30;;;;;;6249170;27;89045;-64
2022/06/10 13:48:04;;;;;;;2.70;2.50;;;22.30;95.20;;;;;;6255168;27;89048;-65
2022/06/10 13:51:18;;;;;;;5.35;4.82;;;22.30;95.10;;;;;;6234775;27;88994;-65
2022/06/10 13:54:23;;;;;;;4.53;3.47;;;22.30;95.40;;;;;;6235727;27;88460;-66
2022/06/10 13:57:33;;;;;;;4.03;3.35;;;22.40;95.60;;;;;;6236054;27;89114;-64
2022/06/10 14:00:41;;;;;;;4.18;3.55;;;22.40;95.60;;;;;;6256590;27;88189;-65
2022/06/10 14:03:46;;;;;;;3.20;2.90;;;22.50;98.60;;;;;;6245016;27;89028;-64
2022/06/10 14:06:50;;;;;;;3.22;2.80;;;22.50;96.80;;;;;;6248874;27;89106;-65
2022/06/10 14:09:54;;;;;;;3.70;3.00;;;22.50;96.20;;;;;;6249194;27;89013;-65
2022/06/10 14:12:59;;;;;;;3.00;2.70;;;22.50;95.80;;;;;;6248599;27;88989;-65
2022/06/10 14:16:03;;;;;;;4.10;3.15;;;22.50;95.80;;;;;;6240536;28;89069;-64
2022/06/10 14:19:11;;;;;;;3.50;3.15;;;22.50;95.70;;;;;;6244636;27;90621;-65
2022/06/10 14:22:19;;;;;;;3.85;3.20;;;22.50;95.60;;;;;;6236776;27;87736;-65
2022/06/10 14:25:23;;;;;;;3.10;2.60;;;22.50;95.60;;;;;;6241648;27;88627;-65
2022/06/10 14:28:25;;;;;;;3.20;2.90;;;22.50;95.50;;;;;;6247629;27;89055;-65
2022/06/10 14:31:30;;;;;;;3.88;3.10;;;22.50;95.50;;;;;;6241029;27;89318;-66
2022/06/10 14:34:32;;;;;;;3.75;3.10;;;22.50;95.50;;;;;;6233114;27;89082;-63
2022/06/10 14:37:36;;;;;;;3.65;3.05;;;22.50;95.60;;;;;;6253512;27;89065;-62
2022/06/10 14:40:54;;;;;;;3.03;2.80;;;22.50;95.60;;;;;;6247153;28;89201;-63
2022/06/10 14:43:59;;;;;;;2.95;2.75;;;22.50;95.80;;;;;;6245874;27;89024;-62
2022/06/10 14:47:08;;;;;;;3.53;3.10;;;22.50;95.80;;;;;;6250762;27;89343;-63
2022/06/10 14:50:17;;;;;;;3.28;2.97;;;22.50;95.90;;;;;;6243643;27;89114;-63
2022/06/10 14:53:21;;;;;;;3.08;2.85;;;22.50;96.10;;;;;;6249700;27;89345;-63
2022/06/10 14:56:33;;;;;;;2.88;2.67;;;22.50;96.10;;;;;;6258987;27;88350;-63
2022/06/10 14:59:35;;;;;;;3.50;3.20;;;22.50;96.20;;;;;;6238528;27;89213;-62
2022/06/10 15:02:39;;;;;;;3.65;3.30;;;22.50;96.10;;;;;;6241805;27;89100;-62
2022/06/10 15:09:11;;;;;;;3.53;3.22;;;22.50;96.60;;;;;;6240686;27;87637;-63
2022/06/10 15:12:17;;;;;;;3.42;3.10;;;22.50;96.60;;;;;;6240025;27;89146;-63
2022/06/10 15:15:19;;;;;;;3.42;3.10;;;22.50;96.70;;;;;;6236319;27;89356;-63
2022/06/10 15:18:23;;;;;;;4.15;3.42;;;22.50;96.60;;;;;;6244426;27;89248;-62
2022/06/10 15:21:30;;;;;;;5.35;3.42;;;22.50;96.70;;;;;;6238766;27;90590;-63
2022/06/10 15:24:33;;;;;;;3.78;3.30;;;22.50;96.90;;;;;;6238018;27;89145;-63
2022/06/10 15:27:35;;;;;;;3.55;3.25;;;22.50;96.80;;;;;;6252692;27;88360;-62
2022/06/10 15:30:37;;;;;;;3.15;2.85;;;22.50;96.80;;;;;;6233417;27;87895;-62
2022/06/10 15:33:40;;;;;;;4.47;3.17;;;22.50;97.00;;;;;;6242287;27;89366;-65
2022/06/10 15:43:23;;;;;;;3.20;2.90;;;22.50;97.20;;;;;;6232474;27;88930;-65
2022/06/10 15:46:27;;;;;;;3.25;2.95;;;22.50;97.10;;;;;;6232163;27;88546;-65
2022/06/10 15:49:31;;;;;;;3.28;2.97;;;22.50;96.90;;;;;;6239855;27;89079;-65
2022/06/10 15:52:36;;;;;;;3.40;3.10;;;22.50;96.80;;;;;;6242322;27;89114;-65
2022/06/10 15:58:58;;;;;;;3.42;3.13;;;22.50;97.20;;;;;;6255970;27;87349;-63
2022/06/10 16:02:02;;;;;;;5.13;3.30;;;22.50;97.40;;;;;;6247760;27;88665;-62
2022/06/10 16:05:12;;;;;;;3.70;3.40;;;22.50;97.70;;;;;;6246561;27;90484;-63
2022/06/10 16:08:14;;;;;;;5.03;3.35;;;22.50;97.80;;;;;;6247479;27;90081;-63
2022/06/10 16:11:19;;;;;;;3.55;3.10;;;22.50;97.80;;;;;;6242469;27;89406;-64
2022/06/10 16:14:21;;;;;;;5.38;3.35;;;22.50;97.90;;;;;;6248612;27;89095;-63
2022/06/10 16:17:27;;;;;;;6.22;3.38;;;22.50;97.90;;;;;;6248439;28;89203;-64
2022/06/10 16:20:32;;;;;;;3.58;3.10;;;22.50;98.00;;;;;;6244632;28;87930;-64
2022/06/10 16:23:36;;;;;;;5.20;3.30;;;22.50;98.00;;;;;;6247344;27;89243;-64
2022/06/10 16:26:40;;;;;;;5.60;3.20;;;22.50;98.10;;;;;;6246180;28;89129;-64
2022/06/10 16:29:44;;;;;;;4.40;3.10;;;22.50;98.00;;;;;;6244601;27;88591;-63
2022/06/10 16:32:47;;;;;;;4.50;3.60;;;22.50;97.80;;;;;;6239055;28;89270;-63
2022/06/10 16:35:51;;;;;;;3.95;3.00;;;22.50;97.80;;;;;;6248671;27;89543;-64
2022/06/10 16:38:53;;;;;;;4.70;3.15;;;22.50;97.70;;;;;;6245379;27;90119;-64
2022/06/10 16:41:57;;;;;;;3.50;3.20;;;22.50;97.80;;;;;;6244518;27;89114;-63